Grundy, VA

7:16 AM EST on December 21, 2014 (GMT -0500)
Ramey Flats | Change Station
CLOSE
Current Station
Personal Weather Station
Location: Clintwood, VA
Elevation: 1795 ft
Nearby Weather Stations

Elev 1795 ft 37.21 °N, 82.44 °W | Updated 11 minutes ago

Partly Cloudy
Partly Cloudy
24.8 °F
Feels Like 25 °F
N
0.0
Wind Variable Wind from ENE
Gusts 1.0 mph

Today
High -- | Low -- °F
--% Chance of Precip.
Yesterday
High -- | Low -- °F
Precip. -- in
7:38 AM 5:14 PM
Waning Crescent, 0% visible
Pressure 30.20 in
Visibility 7.0 miles
Clouds Overcast 1500 ft
Windchill 25 °F
Dew Point 24 °F
Humidity 96%
Rainfall 0.01 in
Snow Depth Not available.
UV 0 out of 12
Pollen .10 out of 12
Air Quality Not available.
Flu Activity Not available.
METAR KJFZ 211155Z AUTO 00000KT 7SM OVC015 00/M01 A3020 RMK AO2 T00001012 10006 20000

More Conditions Fewer Conditions

Pressure 30.20 in
Visibility 7.0 miles
Clouds Overcast 1500 ft
Windchill 25 °F
Dew Point 24 °F
Humidity 96%
Rainfall 0.01 in
Snow Depth Not available.
UV 0 out of 12
Pollen .10 out of 12
Air Quality Not available.
Flu Activity Not available.
METAR KJFZ 211155Z AUTO 00000KT 7SM OVC015 00/M01 A3020 RMK AO2 T00001012 10006 20000

More Conditions Fewer Conditions

10-Day Weather Forecast

Almanac

Astronomy

Dec. 21, 2014 Rise Set
Actual Time
Civil Twilight
Nautical Twilight
Astronomical Twilight
Moon
Length of Visible Light
Length of Day
Tomorrow will be .
, % of the Moon is Illuminated

Today's Extremes

State Highs State Lows

Community

WunderPhotos

Upload Photos

1,779,371 photos uploaded!

WunderBlogs® & News

Nearby

Air Quality

  Air Quality AQ Index Pollutant
Not available.

Snow Depth

Station Depth Elevation

Earthquake Activity

City Distance Mag. Time & Date
Minimum magnitude displayed is 2.5.

Coastal Water Temperatures

Place Temperature

Nearby Weather Stations